Terminal Aerodrome Forecast
Issued by NWS

Home | Current Version | Previous Version | Text Only | Print | Product List | Glossary On
Versions: 1 2 3 4 5 6 7 8 9 10 11 12 13 14 15 16 17 18 19 20 21 22 23 24 25
630
FTUS45 KPSR 191445 AAA
TAFPHX
TAF AMD
KPHX 191445Z 1915/2012 12006KT P6SM -SHRA FEW015 BKN050 OVC070
     FM191800 15006KT P6SM VCSH FEW020 BKN050 OVC070
     FM192100 22008KT P6SM FEW030 BKN060 BKN080
     FM200300 10005KT P6SM BKN080=

USA.gov is the U.S. government's official web portal to all federal, state and local government web resources and services.